createdAt,value
2023-01-21T00:00:07.951Z,984.54
2023-01-21T00:01:07.929Z,984.55
2023-01-21T00:02:07.958Z,984.57
2023-01-21T00:03:07.977Z,984.51
2023-01-21T00:04:07.916Z,984.52
2023-01-21T00:05:07.888Z,984.59
2023-01-21T00:06:07.883Z,984.63
2023-01-21T00:07:07.932Z,984.61
2023-01-21T00:08:07.883Z,984.68
2023-01-21T00:09:07.913Z,984.69
2023-01-21T00:10:07.843Z,984.68
2023-01-21T00:11:07.826Z,984.71
2023-01-21T00:12:07.817Z,984.73
2023-01-21T00:13:07.821Z,984.75
2023-01-21T00:14:07.786Z,984.78
2023-01-21T00:15:07.804Z,984.79
2023-01-21T00:16:07.854Z,984.85
2023-01-21T00:17:07.787Z,984.89
2023-01-21T00:18:07.752Z,984.87
2023-01-21T00:19:07.747Z,984.92
2023-01-21T00:20:07.750Z,984.86
2023-01-21T00:21:08.556Z,984.90
2023-01-21T00:22:07.710Z,984.93
2023-01-21T00:23:07.711Z,984.95
2023-01-21T00:24:07.698Z,984.97
2023-01-21T00:25:07.697Z,984.99
2023-01-21T00:26:07.665Z,984.99
2023-01-21T00:27:07.698Z,985.02
2023-01-21T00:28:07.643Z,985.03
2023-01-21T00:29:08.089Z,985.03
2023-01-21T00:30:07.620Z,985.08
2023-01-21T00:31:08.061Z,985.12
2023-01-21T00:32:07.615Z,985.08
2023-01-21T00:33:07.603Z,985.13
2023-01-21T00:34:07.573Z,985.11
2023-01-21T00:35:07.598Z,985.06
2023-01-21T00:36:07.547Z,985.14
2023-01-21T00:37:07.566Z,985.11
2023-01-21T00:38:07.535Z,985.10
2023-01-21T00:39:07.539Z,985.09
2023-01-21T00:40:07.513Z,985.10
2023-01-21T00:41:07.589Z,985.14
2023-01-21T00:42:07.523Z,985.13
2023-01-21T00:43:07.535Z,985.10
2023-01-21T00:44:07.504Z,985.15
2023-01-21T00:45:07.477Z,985.22
2023-01-21T00:46:07.494Z,985.20
2023-01-21T00:47:07.451Z,985.23
2023-01-21T00:48:07.527Z,985.29
2023-01-21T00:49:07.483Z,985.25
2023-01-21T00:50:07.478Z,985.31
2023-01-21T00:51:07.436Z,985.28
2023-01-21T00:52:07.394Z,985.38
2023-01-21T00:53:07.371Z,985.39
2023-01-21T00:54:07.359Z,985.35
2023-01-21T00:55:07.365Z,985.41
2023-01-21T00:56:07.365Z,985.34
2023-01-21T00:57:07.411Z,985.44
2023-01-21T00:58:07.309Z,985.48
2023-01-21T00:59:07.332Z,985.47
2023-01-21T01:00:07.303Z,985.49
2023-01-21T01:01:07.495Z,985.50
2023-01-21T01:02:07.277Z,985.53
2023-01-21T01:03:07.282Z,985.52
2023-01-21T01:04:07.252Z,985.60
2023-01-21T01:05:07.559Z,985.62
2023-01-21T01:06:07.231Z,985.60
2023-01-21T01:07:07.257Z,985.64
2023-01-21T01:08:07.206Z,985.62
2023-01-21T01:09:07.202Z,985.68
2023-01-21T01:10:07.178Z,985.74
2023-01-21T01:11:07.186Z,985.73
2023-01-21T01:12:07.225Z,985.73
2023-01-21T01:13:07.166Z,985.72
2023-01-21T01:14:07.196Z,985.76
2023-01-21T01:15:07.145Z,985.82
2023-01-21T01:16:07.226Z,985.85
2023-01-21T01:17:07.124Z,985.77
2023-01-21T01:18:07.105Z,985.75
2023-01-21T01:19:07.112Z,985.83
2023-01-21T01:20:07.093Z,985.82
2023-01-21T01:21:07.079Z,985.85
2023-01-21T01:22:07.082Z,985.85
2023-01-21T01:23:07.082Z,985.88
2023-01-21T01:24:07.037Z,985.87
2023-01-21T01:25:07.029Z,985.89
2023-01-21T01:26:07.037Z,985.91
2023-01-21T01:27:07.040Z,985.89
2023-01-21T01:28:06.999Z,985.87
2023-01-21T01:29:07.023Z,985.94
2023-01-21T01:30:06.997Z,985.96
2023-01-21T01:31:07.074Z,985.88
2023-01-21T01:32:06.951Z,985.95
2023-01-21T01:33:06.950Z,985.97
2023-01-21T01:34:06.948Z,985.92
2023-01-21T01:35:06.957Z,985.91
2023-01-21T01:36:06.919Z,985.96
2023-01-21T01:37:06.902Z,985.92
2023-01-21T01:38:06.889Z,985.95
2023-01-21T01:39:06.933Z,985.90
2023-01-21T01:40:06.938Z,985.94
2023-01-21T01:41:06.875Z,985.92
2023-01-21T01:42:06.844Z,985.91
2023-01-21T01:43:06.833Z,985.92
2023-01-21T01:44:06.823Z,985.91
2023-01-21T01:45:06.820Z,985.91
2023-01-21T01:46:06.889Z,985.99
2023-01-21T01:47:06.794Z,985.95
2023-01-21T01:48:06.832Z,985.90
2023-01-21T01:49:06.794Z,985.93
2023-01-21T01:50:06.775Z,985.91
2023-01-21T01:51:06.834Z,985.98
2023-01-21T01:52:06.746Z,985.99
2023-01-21T01:53:06.752Z,985.99
2023-01-21T01:54:06.738Z,986.04
2023-01-21T01:55:06.696Z,985.98
2023-01-21T01:56:06.719Z,986.03
2023-01-21T01:57:06.670Z,986.02
2023-01-21T01:58:06.692Z,985.98
2023-01-21T01:59:06.684Z,985.99
2023-01-21T02:00:06.710Z,985.95
2023-01-21T02:01:06.640Z,986.00
2023-01-21T02:02:06.626Z,986.02
2023-01-21T02:03:06.649Z,985.96
2023-01-21T02:04:06.643Z,986.07
2023-01-21T02:05:06.611Z,986.00
2023-01-21T02:06:06.596Z,986.01
2023-01-21T02:07:06.575Z,986.02
2023-01-21T02:08:06.605Z,986.05
2023-01-21T02:09:06.569Z,986.05
2023-01-21T02:10:06.585Z,986.11
2023-01-21T02:11:06.545Z,986.14
2023-01-21T02:12:06.554Z,986.16
2023-01-21T02:13:06.522Z,986.10
2023-01-21T02:14:06.491Z,986.13
2023-01-21T02:15:06.491Z,986.16
2023-01-21T02:16:06.531Z,986.15
2023-01-21T02:17:06.535Z,986.15
2023-01-21T02:18:06.479Z,986.16
2023-01-21T02:19:06.475Z,986.17
2023-01-21T02:20:06.476Z,986.18
2023-01-21T02:21:06.430Z,986.17
2023-01-21T02:22:06.428Z,986.17
2023-01-21T02:23:06.468Z,986.20
2023-01-21T02:24:06.452Z,986.31
2023-01-21T02:25:06.380Z,986.27
2023-01-21T02:26:06.369Z,986.33
2023-01-21T02:27:06.587Z,986.32
2023-01-21T02:28:06.354Z,986.38
2023-01-21T02:29:06.339Z,986.41
2023-01-21T02:30:06.329Z,986.46
2023-01-21T02:31:06.426Z,986.41
2023-01-21T02:32:06.314Z,986.51
2023-01-21T02:33:06.332Z,986.56
2023-01-21T02:34:06.285Z,986.56
2023-01-21T02:35:06.284Z,986.56
2023-01-21T02:36:06.349Z,986.59
2023-01-21T02:37:06.260Z,986.63
2023-01-21T02:38:06.274Z,986.62
2023-01-21T02:39:06.233Z,986.68
2023-01-21T02:40:06.231Z,986.62
2023-01-21T02:41:06.216Z,986.68
2023-01-21T02:42:06.253Z,986.62
2023-01-21T02:43:06.194Z,986.65
2023-01-21T02:44:06.213Z,986.66
2023-01-21T02:45:06.208Z,986.78
2023-01-21T02:46:06.164Z,986.72
2023-01-21T02:47:06.161Z,986.69
2023-01-21T02:48:06.334Z,986.70
2023-01-21T02:49:06.201Z,986.76
2023-01-21T02:50:06.109Z,986.74
2023-01-21T02:51:06.224Z,986.82
2023-01-21T02:52:06.087Z,986.77
2023-01-21T02:53:06.103Z,986.87
2023-01-21T02:54:06.073Z,986.83
2023-01-21T02:55:06.121Z,986.82
2023-01-21T02:56:06.071Z,986.77
2023-01-21T02:57:06.043Z,986.84
2023-01-21T02:58:06.033Z,986.84
2023-01-21T02:59:06.042Z,986.84
2023-01-21T03:00:06.001Z,986.91
2023-01-21T03:01:06.134Z,986.85
2023-01-21T03:02:06.068Z,986.88
2023-01-21T03:03:05.988Z,986.89
2023-01-21T03:04:05.959Z,986.91
2023-01-21T03:05:05.945Z,986.95
2023-01-21T03:06:05.963Z,986.95
2023-01-21T03:07:05.938Z,986.90
2023-01-21T03:08:05.950Z,986.92
2023-01-21T03:09:05.895Z,986.96
2023-01-21T03:10:05.907Z,986.95
2023-01-21T03:11:05.916Z,986.94
2023-01-21T03:12:05.901Z,986.95
2023-01-21T03:13:05.864Z,986.99
2023-01-21T03:14:05.859Z,987.03
2023-01-21T03:15:05.903Z,987.09
2023-01-21T03:16:05.920Z,987.05
2023-01-21T03:17:05.819Z,987.07
2023-01-21T03:18:05.809Z,987.10
2023-01-21T03:19:05.820Z,987.17
2023-01-21T03:20:05.798Z,987.09
2023-01-21T03:21:05.811Z,987.13
2023-01-21T03:22:06.281Z,987.11
2023-01-21T03:23:05.787Z,987.14
2023-01-21T03:24:05.750Z,987.16
2023-01-21T03:25:05.744Z,987.13
2023-01-21T03:26:05.741Z,987.17
2023-01-21T03:27:05.731Z,987.12
2023-01-21T03:28:05.723Z,987.15
2023-01-21T03:29:05.698Z,987.13
2023-01-21T03:30:05.684Z,987.21
2023-01-21T03:31:05.852Z,987.23
2023-01-21T03:32:05.663Z,987.19
2023-01-21T03:33:05.671Z,987.24
2023-01-21T03:34:05.649Z,987.21
2023-01-21T03:35:05.625Z,987.20
2023-01-21T03:36:05.631Z,987.19
2023-01-21T03:37:05.615Z,987.18
2023-01-21T03:38:05.592Z,987.16
2023-01-21T03:39:05.609Z,987.13
2023-01-21T03:40:05.574Z,987.13
2023-01-21T03:41:05.564Z,987.11
2023-01-21T03:42:05.565Z,987.10
2023-01-21T03:43:05.553Z,987.09
2023-01-21T03:44:05.560Z,987.17
2023-01-21T03:45:05.562Z,987.18
2023-01-21T03:46:05.582Z,987.20
2023-01-21T03:47:05.506Z,987.23
2023-01-21T03:48:05.511Z,987.28
2023-01-21T03:49:05.482Z,987.34
2023-01-21T03:50:05.586Z,987.35
2023-01-21T03:51:05.550Z,987.43
2023-01-21T03:52:05.456Z,987.45
2023-01-21T03:53:05.447Z,987.48
2023-01-21T03:54:05.445Z,987.49
2023-01-21T03:55:05.423Z,987.48
2023-01-21T03:56:05.444Z,987.53
2023-01-21T03:57:05.434Z,987.50
2023-01-21T03:58:05.400Z,987.52
2023-01-21T03:59:05.374Z,987.54
2023-01-21T04:00:05.362Z,987.52
2023-01-21T04:01:05.378Z,987.59
2023-01-21T04:02:05.401Z,987.50
2023-01-21T04:03:05.354Z,987.55
2023-01-21T04:04:05.328Z,987.56
2023-01-21T04:05:05.320Z,987.62
2023-01-21T04:06:05.312Z,987.69
2023-01-21T04:07:05.305Z,987.75
2023-01-21T04:08:05.340Z,987.64
2023-01-21T04:09:05.288Z,987.78
2023-01-21T04:10:05.272Z,987.74
2023-01-21T04:11:05.247Z,987.75
2023-01-21T04:12:05.231Z,987.75
2023-01-21T04:13:05.255Z,987.77
2023-01-21T04:14:05.281Z,987.71
2023-01-21T04:15:05.696Z,987.69
2023-01-21T04:16:05.228Z,987.69
2023-01-21T04:17:05.192Z,987.70
2023-01-21T04:18:05.182Z,987.71
2023-01-21T04:19:05.208Z,987.66
2023-01-21T04:20:05.141Z,987.72
2023-01-21T04:21:05.183Z,987.77
2023-01-21T04:22:05.143Z,987.79
2023-01-21T04:23:05.133Z,987.77
2023-01-21T04:24:05.123Z,987.78
2023-01-21T04:25:05.094Z,987.84
2023-01-21T04:26:05.117Z,987.79
2023-01-21T04:27:05.084Z,987.80
2023-01-21T04:28:05.100Z,987.72
2023-01-21T04:29:05.133Z,987.73
2023-01-21T04:30:05.060Z,987.78
2023-01-21T04:31:05.084Z,987.77
2023-01-21T04:32:05.027Z,987.74
2023-01-21T04:33:05.031Z,987.82
2023-01-21T04:34:05.019Z,987.80
2023-01-21T04:35:05.043Z,987.78
2023-01-21T04:36:04.991Z,987.81
2023-01-21T04:37:04.983Z,987.82
2023-01-21T04:38:04.969Z,987.84
2023-01-21T04:39:04.986Z,987.78
2023-01-21T04:40:04.951Z,987.75
2023-01-21T04:41:04.939Z,987.73
2023-01-21T04:42:04.923Z,987.78
2023-01-21T04:43:04.927Z,987.73
2023-01-21T04:44:04.962Z,987.75
2023-01-21T04:45:04.882Z,987.75
2023-01-21T04:46:04.967Z,987.77
2023-01-21T04:47:04.876Z,987.78
2023-01-21T04:48:04.860Z,987.77
2023-01-21T04:49:04.852Z,987.85
2023-01-21T04:50:04.962Z,987.76
2023-01-21T04:51:05.849Z,987.75
2023-01-21T04:52:04.826Z,987.84
2023-01-21T04:53:04.801Z,987.81
2023-01-21T04:54:04.791Z,987.71
2023-01-21T04:55:04.805Z,987.79
2023-01-21T04:56:04.799Z,987.82
2023-01-21T04:57:04.765Z,987.87
2023-01-21T04:58:04.751Z,987.88
2023-01-21T04:59:04.774Z,987.88
2023-01-21T05:00:04.745Z,987.91
2023-01-21T05:01:04.765Z,987.95
2023-01-21T05:02:04.753Z,987.91
2023-01-21T05:03:04.748Z,987.94
2023-01-21T05:04:04.693Z,987.92
2023-01-21T05:05:04.675Z,987.90
2023-01-21T05:06:04.682Z,987.96
2023-01-21T05:07:04.659Z,987.91
2023-01-21T05:08:04.643Z,987.92
2023-01-21T05:09:04.667Z,987.96
2023-01-21T05:10:04.631Z,987.95
2023-01-21T05:11:04.619Z,987.94
2023-01-21T05:12:04.624Z,987.93
2023-01-21T05:13:04.599Z,987.99
2023-01-21T05:14:04.657Z,988.03
2023-01-21T05:15:04.592Z,988.05
2023-01-21T05:16:04.612Z,988.03
2023-01-21T05:17:04.607Z,988.06
2023-01-21T05:18:04.534Z,988.05
2023-01-21T05:19:04.578Z,988.07
2023-01-21T05:20:04.519Z,988.10
2023-01-21T05:21:04.545Z,988.08
2023-01-21T05:22:04.511Z,988.07
2023-01-21T05:23:04.492Z,988.10
2023-01-21T05:24:04.537Z,988.05
2023-01-21T05:25:04.468Z,988.12
2023-01-21T05:26:04.459Z,988.17
2023-01-21T05:27:04.464Z,988.24
2023-01-21T05:28:04.463Z,988.24
2023-01-21T05:29:04.425Z,988.24
2023-01-21T05:30:04.445Z,988.27
2023-01-21T05:31:04.692Z,988.22
2023-01-21T05:32:04.402Z,988.26
2023-01-21T05:33:04.416Z,988.27
2023-01-21T05:34:04.378Z,988.27
2023-01-21T05:35:04.371Z,988.36
2023-01-21T05:36:04.360Z,988.30
2023-01-21T05:37:04.861Z,988.32
2023-01-21T05:38:04.397Z,988.33
2023-01-21T05:39:04.313Z,988.31
2023-01-21T05:40:04.311Z,988.33
2023-01-21T05:41:04.302Z,988.43
2023-01-21T05:42:04.308Z,988.41
2023-01-21T05:43:04.303Z,988.42
2023-01-21T05:44:04.280Z,988.44
2023-01-21T05:45:04.269Z,988.46
2023-01-21T05:46:04.287Z,988.45
2023-01-21T05:47:04.244Z,988.48
2023-01-21T05:48:04.229Z,988.52
2023-01-21T05:49:04.233Z,988.46
2023-01-21T05:50:04.191Z,988.41
2023-01-21T05:51:04.220Z,988.50
2023-01-21T05:52:04.190Z,988.42
2023-01-21T05:53:04.191Z,988.42
2023-01-21T05:54:04.188Z,988.42
2023-01-21T05:55:04.152Z,988.42
2023-01-21T05:56:04.140Z,988.48
2023-01-21T05:57:04.150Z,988.50
2023-01-21T05:58:04.127Z,988.42
2023-01-21T05:59:04.131Z,988.52
2023-01-21T06:00:04.102Z,988.55
2023-01-21T06:01:04.092Z,988.53
2023-01-21T06:02:04.095Z,988.62
2023-01-21T06:03:04.075Z,988.64
2023-01-21T06:04:04.069Z,988.67
2023-01-21T06:05:04.108Z,988.74
2023-01-21T06:06:04.032Z,988.72
2023-01-21T06:07:04.052Z,988.80
2023-01-21T06:08:04.016Z,988.79
2023-01-21T06:09:04.008Z,988.79
2023-01-21T06:10:03.981Z,988.80
2023-01-21T06:11:03.980Z,988.77
2023-01-21T06:12:03.995Z,988.79
2023-01-21T06:13:03.978Z,988.85
2023-01-21T06:14:03.960Z,988.81
2023-01-21T06:15:03.947Z,988.81
2023-01-21T06:16:04.074Z,988.89
2023-01-21T06:17:03.908Z,988.89
2023-01-21T06:18:03.934Z,988.86
2023-01-21T06:19:03.895Z,988.91
2023-01-21T06:20:03.886Z,988.95
2023-01-21T06:21:03.922Z,988.94
2023-01-21T06:22:03.892Z,988.91
2023-01-21T06:23:03.900Z,988.92
2023-01-21T06:24:03.855Z,988.95
2023-01-21T06:25:03.835Z,988.94
2023-01-21T06:26:03.838Z,988.92
2023-01-21T06:27:03.836Z,988.96
2023-01-21T06:28:03.816Z,989.00
2023-01-21T06:29:03.796Z,989.02
2023-01-21T06:30:03.778Z,988.98
2023-01-21T06:31:03.886Z,988.99
2023-01-21T06:32:03.942Z,989.00
2023-01-21T06:33:03.753Z,989.03
2023-01-21T06:34:03.748Z,988.97
2023-01-21T06:35:03.735Z,989.04
2023-01-21T06:36:03.753Z,989.05
2023-01-21T06:37:03.708Z,989.01
2023-01-21T06:38:03.705Z,989.01
2023-01-21T06:39:03.695Z,989.01
2023-01-21T06:40:03.683Z,989.00
2023-01-21T06:41:03.697Z,989.03
2023-01-21T06:42:03.677Z,989.00
2023-01-21T06:43:03.644Z,989.02
2023-01-21T06:44:03.635Z,989.00
2023-01-21T06:45:03.674Z,988.99
2023-01-21T06:46:03.644Z,989.02
2023-01-21T06:47:03.647Z,989.05
2023-01-21T06:48:03.609Z,989.07
2023-01-21T06:49:03.574Z,989.10
2023-01-21T06:50:03.603Z,989.04
2023-01-21T06:51:03.598Z,989.06
2023-01-21T06:52:03.571Z,989.08
2023-01-21T06:53:03.551Z,989.11
2023-01-21T06:54:03.540Z,989.14
2023-01-21T06:55:03.545Z,989.09
2023-01-21T06:56:03.502Z,989.04
2023-01-21T06:57:03.507Z,989.10
2023-01-21T06:58:03.476Z,989.07
2023-01-21T06:59:03.463Z,989.10
2023-01-21T07:00:03.479Z,989.12
2023-01-21T07:01:03.447Z,989.19
2023-01-21T07:02:03.437Z,989.24
2023-01-21T07:03:03.461Z,989.17
2023-01-21T07:04:03.576Z,989.29
2023-01-21T07:05:03.468Z,989.25
2023-01-21T07:06:03.410Z,989.22
2023-01-21T07:07:03.392Z,989.20
2023-01-21T07:08:03.398Z,989.17
2023-01-21T07:09:03.369Z,989.17
2023-01-21T07:10:03.414Z,989.20
2023-01-21T07:11:03.347Z,989.31
2023-01-21T07:12:03.349Z,989.26
2023-01-21T07:13:03.333Z,989.30
2023-01-21T07:14:03.335Z,989.31
2023-01-21T07:15:03.316Z,989.33
2023-01-21T07:16:06.647Z,989.34
2023-01-21T07:17:03.284Z,989.32
2023-01-21T07:18:03.285Z,989.30
2023-01-21T07:19:03.280Z,989.31
2023-01-21T07:20:03.252Z,989.31
2023-01-21T07:21:03.270Z,989.39
2023-01-21T07:22:03.240Z,989.38
2023-01-21T07:23:03.230Z,989.44
2023-01-21T07:24:03.210Z,989.41
2023-01-21T07:25:03.222Z,989.50
2023-01-21T07:26:03.236Z,989.46
2023-01-21T07:27:03.216Z,989.47
2023-01-21T07:28:03.171Z,989.53
2023-01-21T07:29:03.159Z,989.46
2023-01-21T07:30:03.150Z,989.50
2023-01-21T07:31:03.277Z,989.48
2023-01-21T07:32:03.215Z,989.50
2023-01-21T07:33:03.115Z,989.54
2023-01-21T07:34:03.199Z,989.55
2023-01-21T07:35:03.246Z,989.58
2023-01-21T07:36:03.082Z,989.62
2023-01-21T07:37:03.075Z,989.56
2023-01-21T07:38:03.063Z,989.65
2023-01-21T07:39:03.059Z,989.61
2023-01-21T07:40:03.067Z,989.60
2023-01-21T07:41:03.037Z,989.59
2023-01-21T07:42:03.011Z,989.55
2023-01-21T07:43:03.022Z,989.60
2023-01-21T07:44:03.081Z,989.63
2023-01-21T07:45:03.009Z,989.65
2023-01-21T07:46:02.994Z,989.65
2023-01-21T07:47:02.978Z,989.70
2023-01-21T07:48:02.969Z,989.76
2023-01-21T07:49:02.944Z,989.76
2023-01-21T07:50:02.964Z,989.76
2023-01-21T07:51:02.961Z,989.72
2023-01-21T07:52:02.936Z,989.79
2023-01-21T07:53:02.905Z,989.77
2023-01-21T07:54:02.905Z,989.79
2023-01-21T07:55:02.903Z,989.78
2023-01-21T07:56:02.879Z,989.73
2023-01-21T07:57:02.892Z,989.78
2023-01-21T07:58:02.861Z,989.75
2023-01-21T07:59:02.829Z,989.80
2023-01-21T08:00:02.884Z,989.78
2023-01-21T08:01:02.817Z,989.79
2023-01-21T08:02:03.017Z,989.81
2023-01-21T08:03:02.819Z,989.77
2023-01-21T08:04:02.834Z,989.79
2023-01-21T08:05:02.802Z,989.70
2023-01-21T08:06:02.765Z,989.78
2023-01-21T08:07:02.757Z,989.84
2023-01-21T08:08:02.739Z,989.81
2023-01-21T08:09:02.734Z,989.79
2023-01-21T08:10:02.888Z,989.71
2023-01-21T08:11:02.711Z,989.73
2023-01-21T08:12:02.724Z,989.82
2023-01-21T08:13:02.699Z,989.72
2023-01-21T08:14:02.692Z,989.75
2023-01-21T08:15:02.968Z,989.78
2023-01-21T08:16:02.759Z,989.82
2023-01-21T08:17:02.676Z,989.80
2023-01-21T08:18:02.634Z,989.84
2023-01-21T08:19:02.641Z,989.89
2023-01-21T08:20:02.618Z,989.91
2023-01-21T08:21:02.613Z,989.90
2023-01-21T08:22:02.605Z,989.93
2023-01-21T08:23:02.597Z,990.01
2023-01-21T08:24:02.584Z,989.97
2023-01-21T08:25:02.607Z,989.97
2023-01-21T08:26:02.546Z,990.04
2023-01-21T08:27:02.539Z,989.99
2023-01-21T08:28:02.527Z,990.08
2023-01-21T08:29:02.514Z,990.06
2023-01-21T08:30:02.548Z,990.02
2023-01-21T08:31:02.541Z,989.98
2023-01-21T08:32:02.505Z,990.08
2023-01-21T08:33:03.504Z,990.10
2023-01-21T08:34:02.626Z,990.12
2023-01-21T08:35:02.455Z,990.11
2023-01-21T08:36:02.434Z,990.13
2023-01-21T08:37:02.941Z,990.17
2023-01-21T08:38:02.430Z,990.22
2023-01-21T08:39:02.445Z,990.16
2023-01-21T08:40:02.413Z,990.21
2023-01-21T08:41:02.417Z,990.15
2023-01-21T08:42:02.379Z,990.16
2023-01-21T08:43:02.425Z,990.18
2023-01-21T08:44:02.446Z,990.21
2023-01-21T08:45:02.357Z,990.22
2023-01-21T08:46:02.370Z,990.26
2023-01-21T08:47:02.342Z,990.26
2023-01-21T08:48:02.334Z,990.28
2023-01-21T08:49:02.300Z,990.26
2023-01-21T08:50:02.328Z,990.29
2023-01-21T08:51:02.335Z,990.25
2023-01-21T08:52:02.273Z,990.31
2023-01-21T08:53:02.272Z,990.31
2023-01-21T08:54:02.268Z,990.34
2023-01-21T08:55:02.299Z,990.38
2023-01-21T08:56:02.242Z,990.37
2023-01-21T08:57:02.249Z,990.29
2023-01-21T08:58:02.211Z,990.40
2023-01-21T08:59:02.193Z,990.39
2023-01-21T09:00:02.267Z,990.37
2023-01-21T09:01:02.264Z,990.39
2023-01-21T09:02:02.216Z,990.37
2023-01-21T09:03:02.170Z,990.45
2023-01-21T09:04:02.141Z,990.44
2023-01-21T09:05:02.132Z,990.51
2023-01-21T09:06:02.210Z,990.48
2023-01-21T09:07:02.129Z,990.43
2023-01-21T09:08:02.097Z,990.50
2023-01-21T09:09:02.076Z,990.49
2023-01-21T09:10:02.117Z,990.48
2023-01-21T09:11:02.078Z,990.47
2023-01-21T09:12:03.046Z,990.48
2023-01-21T09:13:02.083Z,990.50
2023-01-21T09:14:02.073Z,990.50
2023-01-21T09:15:02.053Z,990.56
2023-01-21T09:16:02.034Z,990.53
2023-01-21T09:17:02.044Z,990.50
2023-01-21T09:18:02.012Z,990.48
2023-01-21T09:19:01.986Z,990.54
2023-01-21T09:20:02.022Z,990.55
2023-01-21T09:21:01.999Z,990.55
2023-01-21T09:22:01.992Z,990.48
2023-01-21T09:23:02.032Z,990.50
2023-01-21T09:24:01.964Z,990.56
2023-01-21T09:25:01.930Z,990.49
2023-01-21T09:26:01.916Z,990.48
2023-01-21T09:27:01.948Z,990.44
2023-01-21T09:28:01.925Z,990.51
2023-01-21T09:29:01.896Z,990.52
2023-01-21T09:30:01.877Z,990.53
2023-01-21T09:31:01.903Z,990.56
2023-01-21T09:32:01.982Z,990.54
2023-01-21T09:33:01.841Z,990.59
2023-01-21T09:34:01.848Z,990.57
2023-01-21T09:35:01.876Z,990.59
2023-01-21T09:36:01.807Z,990.58
2023-01-21T09:37:01.843Z,990.57
2023-01-21T09:38:01.784Z,990.59
2023-01-21T09:39:01.784Z,990.63
2023-01-21T09:40:01.838Z,990.59
2023-01-21T09:41:01.788Z,990.56
2023-01-21T09:42:01.768Z,990.57
2023-01-21T09:43:01.742Z,990.54
2023-01-21T09:44:01.717Z,990.55
2023-01-21T09:45:01.707Z,990.56
2023-01-21T09:46:03.873Z,990.53
2023-01-21T09:47:01.694Z,990.59
2023-01-21T09:48:01.881Z,990.55
2023-01-21T09:49:01.669Z,990.61
2023-01-21T09:50:01.706Z,990.57
2023-01-21T09:51:01.718Z,990.50
2023-01-21T09:52:01.673Z,990.50
2023-01-21T09:53:01.672Z,990.53
2023-01-21T09:54:01.606Z,990.58
2023-01-21T09:55:01.613Z,990.62
2023-01-21T09:56:01.591Z,990.65
2023-01-21T09:57:01.593Z,990.65
2023-01-21T09:58:01.566Z,990.66
2023-01-21T09:59:01.601Z,990.65
2023-01-21T10:00:01.569Z,990.71
2023-01-21T10:01:01.660Z,990.76
2023-01-21T10:02:01.590Z,990.74
2023-01-21T10:03:01.565Z,990.76
2023-01-21T10:04:01.549Z,990.76
2023-01-21T10:05:01.521Z,990.78
2023-01-21T10:06:01.473Z,990.79
2023-01-21T10:07:01.540Z,990.70
2023-01-21T10:08:01.463Z,990.73
2023-01-21T10:09:01.482Z,990.76
2023-01-21T10:10:01.428Z,990.72
2023-01-21T10:11:01.449Z,990.71
2023-01-21T10:12:01.433Z,990.76
2023-01-21T10:13:01.413Z,990.72
2023-01-21T10:14:01.415Z,990.73
2023-01-21T10:15:01.422Z,990.71
2023-01-21T10:16:01.393Z,990.71
2023-01-21T10:17:01.385Z,990.73
2023-01-21T10:18:01.347Z,990.63
2023-01-21T10:19:01.368Z,990.72
2023-01-21T10:20:01.328Z,990.67
2023-01-21T10:21:01.373Z,990.70
2023-01-21T10:22:01.302Z,990.66
2023-01-21T10:23:01.309Z,990.65
2023-01-21T10:24:01.283Z,990.61
2023-01-21T10:25:01.306Z,990.58
2023-01-21T10:26:01.298Z,990.67
2023-01-21T10:27:01.259Z,990.67
2023-01-21T10:28:01.254Z,990.65
2023-01-21T10:29:01.252Z,990.60
2023-01-21T10:30:01.232Z,990.58
2023-01-21T10:31:01.287Z,990.54
2023-01-21T10:32:01.231Z,990.59
2023-01-21T10:33:01.198Z,990.58
2023-01-21T10:34:01.194Z,990.56
2023-01-21T10:35:01.175Z,990.59
2023-01-21T10:36:01.184Z,990.50
2023-01-21T10:37:01.215Z,990.57
2023-01-21T10:38:01.155Z,990.50
2023-01-21T10:39:01.130Z,990.53
2023-01-21T10:40:01.123Z,990.47
2023-01-21T10:41:01.147Z,990.51
2023-01-21T10:42:01.157Z,990.54
2023-01-21T10:43:01.126Z,990.53
2023-01-21T10:44:01.077Z,990.51
2023-01-21T10:45:01.059Z,990.55
2023-01-21T10:46:01.138Z,990.57
2023-01-21T10:47:01.050Z,990.52
2023-01-21T10:48:01.025Z,990.55
2023-01-21T10:49:01.028Z,990.60
2023-01-21T10:50:01.069Z,990.60
2023-01-21T10:51:01.124Z,990.55
2023-01-21T10:52:01.014Z,990.54
2023-01-21T10:53:01.001Z,990.52
2023-01-21T10:54:00.963Z,990.52
2023-01-21T10:55:00.954Z,990.51
2023-01-21T10:56:00.949Z,990.47
2023-01-21T10:57:00.938Z,990.49
2023-01-21T10:58:01.030Z,990.47
2023-01-21T10:59:00.940Z,990.49
2023-01-21T11:00:01.012Z,990.53
2023-01-21T11:01:00.947Z,990.47
2023-01-21T11:02:00.871Z,990.46
2023-01-21T11:03:00.889Z,990.47
2023-01-21T11:04:00.895Z,990.43
2023-01-21T11:05:00.867Z,990.43
2023-01-21T11:06:00.862Z,990.41
2023-01-21T11:07:00.848Z,990.38
2023-01-21T11:08:00.842Z,990.40
2023-01-21T11:09:00.893Z,990.33
2023-01-21T11:10:00.812Z,990.41
2023-01-21T11:11:00.789Z,990.37
2023-01-21T11:12:00.822Z,990.40
2023-01-21T11:13:00.801Z,990.40
2023-01-21T11:14:00.748Z,990.42
2023-01-21T11:15:00.738Z,990.45
2023-01-21T11:16:00.798Z,990.49
2023-01-21T11:17:00.708Z,990.47
2023-01-21T11:18:00.729Z,990.49
2023-01-21T11:19:00.735Z,990.50
2023-01-21T11:20:00.787Z,990.49
2023-01-21T11:21:00.822Z,990.50
2023-01-21T11:22:00.670Z,990.47
2023-01-21T11:23:00.684Z,990.51
2023-01-21T11:24:00.741Z,990.51
2023-01-21T11:25:00.684Z,990.46
2023-01-21T11:26:00.633Z,990.55
2023-01-21T11:27:00.617Z,990.55
2023-01-21T11:28:00.609Z,990.53
2023-01-21T11:29:00.605Z,990.56
2023-01-21T11:30:00.675Z,990.62
2023-01-21T11:31:01.277Z,990.59
2023-01-21T11:32:00.719Z,990.56
2023-01-21T11:33:00.584Z,990.59
2023-01-21T11:34:00.825Z,990.60
2023-01-21T11:35:00.570Z,990.59
2023-01-21T11:36:00.598Z,990.62
2023-01-21T11:37:00.527Z,990.63
2023-01-21T11:38:00.690Z,990.56
2023-01-21T11:39:00.506Z,990.61
2023-01-21T11:40:00.547Z,990.56
2023-01-21T11:41:00.473Z,990.56
2023-01-21T11:42:00.454Z,990.53
2023-01-21T11:43:00.448Z,990.51
2023-01-21T11:44:00.489Z,990.48
2023-01-21T11:45:00.438Z,990.54
2023-01-21T11:46:00.522Z,990.50
2023-01-21T11:47:00.441Z,990.46
2023-01-21T11:48:00.404Z,990.48
2023-01-21T11:49:00.386Z,990.49
2023-01-21T11:50:00.421Z,990.53
2023-01-21T11:51:00.506Z,990.51
2023-01-21T11:52:00.392Z,990.48
2023-01-21T11:53:01.932Z,990.48
2023-01-21T11:54:00.391Z,990.47
2023-01-21T11:55:00.392Z,990.48
2023-01-21T11:56:00.333Z,990.51
2023-01-21T11:57:00.311Z,990.42
2023-01-21T11:58:00.325Z,990.42
2023-01-21T11:59:00.306Z,990.49
2023-01-21T12:00:00.358Z,990.50
2023-01-21T12:01:00.306Z,990.54
2023-01-21T12:02:00.251Z,990.53
2023-01-21T12:03:00.322Z,990.56
2023-01-21T12:04:00.325Z,990.59
2023-01-21T12:05:00.222Z,990.59
2023-01-21T12:06:00.235Z,990.63
2023-01-21T12:07:00.178Z,990.65
2023-01-21T12:08:00.204Z,990.61
2023-01-21T12:09:00.235Z,990.59
2023-01-21T12:10:00.159Z,990.60
2023-01-21T12:11:00.174Z,990.56
2023-01-21T12:12:00.179Z,990.49
2023-01-21T12:13:00.131Z,990.53
2023-01-21T12:14:00.136Z,990.52
2023-01-21T12:15:00.335Z,990.47
2023-01-21T12:16:00.181Z,990.43
2023-01-21T12:17:00.153Z,990.48
2023-01-21T12:18:00.105Z,990.44
2023-01-21T12:19:00.080Z,990.50
2023-01-21T12:20:00.091Z,990.51
2023-01-21T12:21:00.142Z,990.49
2023-01-21T12:22:00.989Z,990.46
2023-01-21T12:23:00.056Z,990.47
2023-01-21T12:24:00.156Z,990.47
2023-01-21T12:25:00.100Z,990.47
2023-01-21T12:26:00.050Z,990.41
2023-01-21T12:27:00.000Z,990.43
2023-01-21T12:27:59.958Z,990.48